sensor_id;sensor_type;location;lat;lon;timestamp;pressure;altitude;pressure_sealevel;temperature;humidity
85039;BME280;75366;54.588;18.456;2024-01-25T00:02:17;99209.96;;;4.78;87.27
85039;BME280;75366;54.588;18.456;2024-01-25T00:07:20;99210.17;;;4.78;87.34
85039;BME280;75366;54.588;18.456;2024-01-25T00:12:23;99217.36;;;4.74;87.79
85039;BME280;75366;54.588;18.456;2024-01-25T00:17:46;99226.80;;;4.74;87.66
85039;BME280;75366;54.588;18.456;2024-01-25T00:23:09;99241.41;;;4.73;87.65
85039;BME280;75366;54.588;18.456;2024-01-25T00:28:32;99250.49;;;4.72;87.85
85039;BME280;75366;54.588;18.456;2024-01-25T00:33:55;99249.00;;;4.71;87.81
85039;BME280;75366;54.588;18.456;2024-01-25T00:39:18;99266.77;;;4.67;88.12
85039;BME280;75366;54.588;18.456;2024-01-25T00:44:41;99267.54;;;4.63;88.07
85039;BME280;75366;54.588;18.456;2024-01-25T00:50:05;99278.64;;;4.59;88.09
85039;BME280;75366;54.588;18.456;2024-01-25T00:55:28;99278.64;;;4.55;88.27
85039;BME280;75366;54.588;18.456;2024-01-25T01:00:52;99289.79;;;4.53;88.22
85039;BME280;75366;54.588;18.456;2024-01-25T01:06:15;99299.54;;;4.53;88.17
85039;BME280;75366;54.588;18.456;2024-01-25T01:11:38;99288.50;;;4.53;88.17
85039;BME280;75366;54.588;18.456;2024-01-25T01:16:41;99295.05;;;4.54;87.91
85039;BME280;75366;54.588;18.456;2024-01-25T01:21:44;99302.19;;;4.53;87.98
85039;BME280;75366;54.588;18.456;2024-01-25T01:27:07;99309.64;;;4.51;87.99
85039;BME280;75366;54.588;18.456;2024-01-25T01:32:30;99310.08;;;4.51;87.48
85039;BME280;75366;54.588;18.456;2024-01-25T01:37:33;99329.48;;;4.53;87.36
85039;BME280;75366;54.588;18.456;2024-01-25T01:42:36;99330.02;;;4.52;87.35
85039;BME280;75366;54.588;18.456;2024-01-25T01:47:40;99327.48;;;4.52;87.15
85039;BME280;75366;54.588;18.456;2024-01-25T01:53:03;99329.52;;;4.52;87.07
85039;BME280;75366;54.588;18.456;2024-01-25T01:58:07;99321.08;;;4.52;86.98
85039;BME280;75366;54.588;18.456;2024-01-25T02:03:10;99331.79;;;4.50;86.98
85039;BME280;75366;54.588;18.456;2024-01-25T02:08:13;99327.57;;;4.51;86.68
85039;BME280;75366;54.588;18.456;2024-01-25T02:13:17;99335.48;;;4.56;86.11
85039;BME280;75366;54.588;18.456;2024-01-25T02:18:20;99340.55;;;4.54;86.56
85039;BME280;75366;54.588;18.456;2024-01-25T02:23:23;99343.34;;;4.52;86.36
85039;BME280;75366;54.588;18.456;2024-01-25T02:28:26;99343.20;;;4.49;86.38
85039;BME280;75366;54.588;18.456;2024-01-25T02:33:29;99333.24;;;4.47;86.23
85039;BME280;75366;54.588;18.456;2024-01-25T02:38:33;99355.00;;;4.44;86.75
85039;BME280;75366;54.588;18.456;2024-01-25T02:43:36;99355.66;;;4.41;86.66
85039;BME280;75366;54.588;18.456;2024-01-25T02:48:38;99368.39;;;4.37;87.02
85039;BME280;75366;54.588;18.456;2024-01-25T02:53:41;99367.35;;;4.34;87.05
85039;BME280;75366;54.588;18.456;2024-01-25T02:59:04;99372.81;;;4.31;87.57
85039;BME280;75366;54.588;18.456;2024-01-25T03:04:08;99384.36;;;4.30;87.47
85039;BME280;75366;54.588;18.456;2024-01-25T03:09:11;99387.84;;;4.29;87.53
85039;BME280;75366;54.588;18.456;2024-01-25T03:14:14;99388.02;;;4.28;87.36
85039;BME280;75366;54.588;18.456;2024-01-25T03:19:17;99394.13;;;4.25;87.53
85039;BME280;75366;54.588;18.456;2024-01-25T03:24:21;99401.61;;;4.24;87.57
85039;BME280;75366;54.588;18.456;2024-01-25T03:29:24;99407.85;;;4.23;87.94
85039;BME280;75366;54.588;18.456;2024-01-25T03:34:27;99418.02;;;4.24;88.13
85039;BME280;75366;54.588;18.456;2024-01-25T03:39:30;99419.39;;;4.23;88.09
85039;BME280;75366;54.588;18.456;2024-01-25T03:44:33;99432.69;;;4.21;88.19
85039;BME280;75366;54.588;18.456;2024-01-25T03:49:36;99434.00;;;4.19;88.00
85039;BME280;75366;54.588;18.456;2024-01-25T03:54:39;99438.02;;;4.19;88.09
85039;BME280;75366;54.588;18.456;2024-01-25T03:59:42;99439.69;;;4.18;88.01
85039;BME280;75366;54.588;18.456;2024-01-25T04:05:05;99441.77;;;4.18;87.80
85039;BME280;75366;54.588;18.456;2024-01-25T04:10:08;99440.29;;;4.19;87.89
85039;BME280;75366;54.588;18.456;2024-01-25T04:15:11;99443.09;;;4.18;88.03
85039;BME280;75366;54.588;18.456;2024-01-25T04:20:15;99444.46;;;4.18;88.22
85039;BME280;75366;54.588;18.456;2024-01-25T04:25:18;99456.70;;;4.20;88.27
85039;BME280;75366;54.588;18.456;2024-01-25T04:30:21;99466.32;;;4.19;88.34
85039;BME280;75366;54.588;18.456;2024-01-25T04:35:24;99462.41;;;4.20;88.09
85039;BME280;75366;54.588;18.456;2024-01-25T04:40:27;99469.02;;;4.19;87.74
85039;BME280;75366;54.588;18.456;2024-01-25T04:45:30;99476.10;;;4.20;88.02
85039;BME280;75366;54.588;18.456;2024-01-25T04:50:34;99498.29;;;4.18;88.15
85039;BME280;75366;54.588;18.456;2024-01-25T04:55:37;99504.54;;;4.18;88.16
85039;BME280;75366;54.588;18.456;2024-01-25T05:00:40;99512.48;;;4.18;88.08
85039;BME280;75366;54.588;18.456;2024-01-25T05:05:43;99529.44;;;4.18;88.32
85039;BME280;75366;54.588;18.456;2024-01-25T05:11:06;99537.95;;;4.18;88.50
85039;BME280;75366;54.588;18.456;2024-01-25T05:16:29;99540.60;;;4.18;88.84
85039;BME280;75366;54.588;18.456;2024-01-25T05:21:52;99548.39;;;4.21;88.55
85039;BME280;75366;54.588;18.456;2024-01-25T05:27:15;99558.81;;;4.22;88.76
85039;BME280;75366;54.588;18.456;2024-01-25T05:32:37;99563.51;;;4.21;88.66
85039;BME280;75366;54.588;18.456;2024-01-25T05:38:01;99575.32;;;4.23;88.43
85039;BME280;75366;54.588;18.456;2024-01-25T05:43:24;99587.54;;;4.24;88.30
85039;BME280;75366;54.588;18.456;2024-01-25T05:48:46;99604.48;;;4.24;88.41
85039;BME280;75366;54.588;18.456;2024-01-25T05:53:50;99607.60;;;4.22;88.67
85039;BME280;75366;54.588;18.456;2024-01-25T05:58:52;99614.13;;;4.21;88.89
85039;BME280;75366;54.588;18.456;2024-01-25T06:03:55;99624.73;;;4.21;88.75
85039;BME280;75366;54.588;18.456;2024-01-25T06:08:58;99641.44;;;4.20;88.73
85039;BME280;75366;54.588;18.456;2024-01-25T06:14:14;99665.41;;;4.19;88.80
85039;BME280;75366;54.588;18.456;2024-01-25T06:19:17;99681.30;;;4.19;89.06
85039;BME280;75366;54.588;18.456;2024-01-25T06:24:20;99685.03;;;4.18;88.91
85039;BME280;75366;54.588;18.456;2024-01-25T06:29:23;99704.90;;;4.16;88.89
85039;BME280;75366;54.588;18.456;2024-01-25T06:34:26;99719.96;;;4.12;88.45
85039;BME280;75366;54.588;18.456;2024-01-25T06:39:29;99760.02;;;4.06;87.89
85039;BME280;75366;54.588;18.456;2024-01-25T06:44:32;99776.67;;;3.70;87.02
85039;BME280;75366;54.588;18.456;2024-01-25T06:49:35;99804.05;;;3.38;87.50
85039;BME280;75366;54.588;18.456;2024-01-25T06:54:38;99820.27;;;3.14;87.79
85039;BME280;75366;54.588;18.456;2024-01-25T06:59:41;99835.24;;;2.96;88.09
85039;BME280;75366;54.588;18.456;2024-01-25T07:04:44;99848.71;;;2.82;88.03
85039;BME280;75366;54.588;18.456;2024-01-25T07:09:49;99866.37;;;2.74;88.32
85039;BME280;75366;54.588;18.456;2024-01-25T07:14:53;99888.63;;;2.57;87.92
85039;BME280;75366;54.588;18.456;2024-01-25T07:19:56;99902.30;;;2.37;87.62
85039;BME280;75366;54.588;18.456;2024-01-25T07:25:00;99916.11;;;2.17;87.78
85039;BME280;75366;54.588;18.456;2024-01-25T07:30:03;99932.64;;;2.06;88.21
85039;BME280;75366;54.588;18.456;2024-01-25T07:35:06;99938.63;;;1.99;88.32
85039;BME280;75366;54.588;18.456;2024-01-25T07:40:09;99952.58;;;1.96;88.23
85039;BME280;75366;54.588;18.456;2024-01-25T07:45:12;99966.25;;;1.94;87.93
85039;BME280;75366;54.588;18.456;2024-01-25T07:50:15;99976.57;;;1.91;87.47
85039;BME280;75366;54.588;18.456;2024-01-25T07:55:20;99995.33;;;1.86;87.39
85039;BME280;75366;54.588;18.456;2024-01-25T08:00:23;100018.39;;;1.83;87.57
85039;BME280;75366;54.588;18.456;2024-01-25T08:05:25;100030.48;;;1.82;87.18
85039;BME280;75366;54.588;18.456;2024-01-25T08:10:53;100059.44;;;1.83;87.02
85039;BME280;75366;54.588;18.456;2024-01-25T08:16:09;100070.45;;;1.83;86.47
85039;BME280;75366;54.588;18.456;2024-01-25T08:21:13;100082.95;;;1.86;86.16
85039;BME280;75366;54.588;18.456;2024-01-25T08:26:17;100092.26;;;1.86;85.54
85039;BME280;75366;54.588;18.456;2024-01-25T08:31:19;100104.39;;;1.86;84.89
85039;BME280;75366;54.588;18.456;2024-01-25T08:36:23;100118.29;;;1.86;84.47
85039;BME280;75366;54.588;18.456;2024-01-25T08:41:45;100132.14;;;1.88;84.33
85039;BME280;75366;54.588;18.456;2024-01-25T08:47:08;100146.17;;;1.89;84.57
85039;BME280;75366;54.588;18.456;2024-01-25T08:52:31;100160.58;;;1.93;84.71
85039;BME280;75366;54.588;18.456;2024-01-25T08:57:54;100167.01;;;1.99;84.49
85039;BME280;75366;54.588;18.456;2024-01-25T09:03:17;100179.44;;;2.05;84.59
85039;BME280;75366;54.588;18.456;2024-01-25T09:08:40;100194.38;;;2.11;84.78
85039;BME280;75366;54.588;18.456;2024-01-25T09:14:03;100202.11;;;2.12;84.32
85039;BME280;75366;54.588;18.456;2024-01-25T09:19:25;100218.38;;;2.19;84.71
85039;BME280;75366;54.588;18.456;2024-01-25T09:24:48;100230.77;;;2.23;84.88
85039;BME280;75366;54.588;18.456;2024-01-25T09:29:51;100239.09;;;2.28;84.94
85039;BME280;75366;54.588;18.456;2024-01-25T09:34:55;100245.80;;;2.29;84.20
85039;BME280;75366;54.588;18.456;2024-01-25T09:39:58;100263.16;;;2.29;84.10
85039;BME280;75366;54.588;18.456;2024-01-25T09:45:06;100273.35;;;2.38;83.85
85039;BME280;75366;54.588;18.456;2024-01-25T09:50:10;100286.34;;;2.51;83.55
85039;BME280;75366;54.588;18.456;2024-01-25T09:55:13;100297.04;;;2.53;82.54
85039;BME280;75366;54.588;18.456;2024-01-25T10:00:17;100298.25;;;2.52;82.90
85039;BME280;75366;54.588;18.456;2024-01-25T10:05:20;100312.09;;;2.55;82.19
85039;BME280;75366;54.588;18.456;2024-01-25T10:10:23;100323.70;;;2.58;82.36
85039;BME280;75366;54.588;18.456;2024-01-25T10:15:26;100334.96;;;2.58;81.44
85039;BME280;75366;54.588;18.456;2024-01-25T10:20:49;100345.60;;;2.56;81.46
85039;BME280;75366;54.588;18.456;2024-01-25T10:25:53;100352.59;;;2.54;81.54
85039;BME280;75366;54.588;18.456;2024-01-25T10:31:00;100358.05;;;2.56;80.92
85039;BME280;75366;54.588;18.456;2024-01-25T10:36:08;100366.13;;;2.65;80.97
85039;BME280;75366;54.588;18.456;2024-01-25T10:41:13;100378.27;;;2.72;80.97
85039;BME280;75366;54.588;18.456;2024-01-25T10:46:16;100382.38;;;2.74;80.53
85039;BME280;75366;54.588;18.456;2024-01-25T10:51:19;100381.14;;;2.72;80.90
85039;BME280;75366;54.588;18.456;2024-01-25T10:56:23;100394.52;;;2.70;80.74
85039;BME280;75366;54.588;18.456;2024-01-25T11:01:27;100394.89;;;2.70;80.60
85039;BME280;75366;54.588;18.456;2024-01-25T11:06:30;100396.09;;;2.68;80.34
85039;BME280;75366;54.588;18.456;2024-01-25T11:11:38;100398.73;;;2.65;80.07
85039;BME280;75366;54.588;18.456;2024-01-25T11:16:41;100404.89;;;2.57;80.18
85039;BME280;75366;54.588;18.456;2024-01-25T11:21:48;100419.65;;;2.53;80.72
85039;BME280;75366;54.588;18.456;2024-01-25T11:26:54;100428.33;;;2.51;80.56
85039;BME280;75366;54.588;18.456;2024-01-25T11:31:57;100440.30;;;2.48;80.93
85039;BME280;75366;54.588;18.456;2024-01-25T11:37:00;100446.09;;;2.48;80.54
85039;BME280;75366;54.588;18.456;2024-01-25T11:42:03;100454.67;;;2.47;80.34
85039;BME280;75366;54.588;18.456;2024-01-25T11:47:06;100469.50;;;2.43;80.67
85039;BME280;75366;54.588;18.456;2024-01-25T11:52:10;100475.89;;;2.37;80.76
85039;BME280;75366;54.588;18.456;2024-01-25T11:57:13;100486.70;;;2.33;80.90
85039;BME280;75366;54.588;18.456;2024-01-25T12:02:16;100490.75;;;2.30;80.90
85039;BME280;75366;54.588;18.456;2024-01-25T12:07:21;100496.69;;;2.31;81.02
85039;BME280;75366;54.588;18.456;2024-01-25T12:12:24;100505.09;;;2.25;81.35
85039;BME280;75366;54.588;18.456;2024-01-25T12:17:30;100504.84;;;2.23;81.25
85039;BME280;75366;54.588;18.456;2024-01-25T12:22:33;100515.27;;;2.21;81.30
85039;BME280;75366;54.588;18.456;2024-01-25T12:27:40;100530.66;;;2.19;81.84
85039;BME280;75366;54.588;18.456;2024-01-25T12:32:44;100541.05;;;2.15;82.19
85039;BME280;75366;54.588;18.456;2024-01-25T12:37:48;100559.13;;;2.09;82.86
85039;BME280;75366;54.588;18.456;2024-01-25T12:42:51;100570.54;;;2.03;83.55
85039;BME280;75366;54.588;18.456;2024-01-25T12:48:15;100586.30;;;1.98;83.63
85039;BME280;75366;54.588;18.456;2024-01-25T12:53:38;100591.67;;;1.98;83.41
85039;BME280;75366;54.588;18.456;2024-01-25T12:59:01;100596.40;;;1.93;82.39
85039;BME280;75366;54.588;18.456;2024-01-25T13:04:24;100606.31;;;1.93;81.99
85039;BME280;75366;54.588;18.456;2024-01-25T13:09:47;100609.52;;;2.02;81.12
85039;BME280;75366;54.588;18.456;2024-01-25T13:15:10;100619.17;;;2.01;80.91
85039;BME280;75366;54.588;18.456;2024-01-25T13:20:13;100627.80;;;1.99;80.27
85039;BME280;75366;54.588;18.456;2024-01-25T13:25:16;100643.33;;;1.99;79.95
85039;BME280;75366;54.588;18.456;2024-01-25T13:30:19;100658.48;;;1.95;79.66
85039;BME280;75366;54.588;18.456;2024-01-25T13:35:21;100662.15;;;1.93;79.73
85039;BME280;75366;54.588;18.456;2024-01-25T13:40:24;100674.40;;;1.92;79.88
85039;BME280;75366;54.588;18.456;2024-01-25T13:45:27;100679.00;;;1.92;79.99
85039;BME280;75366;54.588;18.456;2024-01-25T13:50:30;100692.27;;;1.89;79.81
85039;BME280;75366;54.588;18.456;2024-01-25T13:55:34;100693.84;;;1.84;80.61
85039;BME280;75366;54.588;18.456;2024-01-25T14:00:37;100698.83;;;1.83;80.69
85039;BME280;75366;54.588;18.456;2024-01-25T14:05:40;100707.05;;;1.82;80.88
85039;BME280;75366;54.588;18.456;2024-01-25T14:10:43;100713.98;;;1.81;81.32
85039;BME280;75366;54.588;18.456;2024-01-25T14:15:46;100727.21;;;1.77;81.86
85039;BME280;75366;54.588;18.456;2024-01-25T14:20:49;100738.42;;;1.70;81.59
85039;BME280;75366;54.588;18.456;2024-01-25T14:25:52;100755.15;;;1.63;81.12
85039;BME280;75366;54.588;18.456;2024-01-25T14:30:55;100766.98;;;1.64;81.02
85039;BME280;75366;54.588;18.456;2024-01-25T14:35:59;100765.63;;;1.65;79.13
85039;BME280;75366;54.588;18.456;2024-01-25T14:41:02;100776.41;;;1.65;78.12
85039;BME280;75366;54.588;18.456;2024-01-25T14:46:06;100799.61;;;1.64;78.94
85039;BME280;75366;54.588;18.456;2024-01-25T14:51:09;100808.16;;;1.50;80.23
85039;BME280;75366;54.588;18.456;2024-01-25T14:56:12;100820.96;;;1.40;80.88
85039;BME280;75366;54.588;18.456;2024-01-25T15:01:16;100835.44;;;1.32;81.16
85039;BME280;75366;54.588;18.456;2024-01-25T15:06:26;100841.13;;;1.26;81.40
85039;BME280;75366;54.588;18.456;2024-01-25T15:11:29;100843.69;;;1.21;81.18
85039;BME280;75366;54.588;18.456;2024-01-25T15:16:32;100853.09;;;1.19;81.45
85039;BME280;75366;54.588;18.456;2024-01-25T15:21:36;100857.80;;;1.17;81.84
85039;BME280;75366;54.588;18.456;2024-01-25T15:26:40;100865.14;;;1.12;82.32
85039;BME280;75366;54.588;18.456;2024-01-25T15:31:43;100880.73;;;1.13;82.43
85039;BME280;75366;54.588;18.456;2024-01-25T15:36:46;100891.38;;;1.10;82.48
85039;BME280;75366;54.588;18.456;2024-01-25T15:41:49;100890.67;;;1.10;82.54
85039;BME280;75366;54.588;18.456;2024-01-25T15:46:52;100899.61;;;1.12;82.22
85039;BME280;75366;54.588;18.456;2024-01-25T15:51:55;100907.33;;;1.11;82.10
85039;BME280;75366;54.588;18.456;2024-01-25T15:56:58;100918.73;;;1.13;81.72
85039;BME280;75366;54.588;18.456;2024-01-25T16:02:01;100932.84;;;1.11;81.80
85039;BME280;75366;54.588;18.456;2024-01-25T16:07:04;100937.85;;;1.11;81.79
85039;BME280;75366;54.588;18.456;2024-01-25T16:12:08;100954.52;;;1.08;81.98
85039;BME280;75366;54.588;18.456;2024-01-25T16:17:11;100967.84;;;1.06;82.61
85039;BME280;75366;54.588;18.456;2024-01-25T16:22:17;100973.32;;;1.02;82.90
85039;BME280;75366;54.588;18.456;2024-01-25T16:27:20;100986.20;;;0.97;83.34
85039;BME280;75366;54.588;18.456;2024-01-25T16:32:23;100992.66;;;0.97;83.75
85039;BME280;75366;54.588;18.456;2024-01-25T16:37:25;100991.08;;;1.02;83.82
85039;BME280;75366;54.588;18.456;2024-01-25T16:42:28;100987.94;;;1.02;83.61
85039;BME280;75366;54.588;18.456;2024-01-25T16:47:31;100989.29;;;0.98;83.73
85039;BME280;75366;54.588;18.456;2024-01-25T16:52:34;101006.51;;;0.99;83.66
85039;BME280;75366;54.588;18.456;2024-01-25T16:57:37;101003.48;;;0.97;83.64
85039;BME280;75366;54.588;18.456;2024-01-25T17:02:40;101010.31;;;0.95;83.49
85039;BME280;75366;54.588;18.456;2024-01-25T17:07:43;101020.11;;;0.95;83.35
85039;BME280;75366;54.588;18.456;2024-01-25T17:12:45;101026.70;;;0.96;83.25
85039;BME280;75366;54.588;18.456;2024-01-25T17:17:49;101033.11;;;0.94;83.43
85039;BME280;75366;54.588;18.456;2024-01-25T17:22:52;101039.09;;;0.89;83.91
85039;BME280;75366;54.588;18.456;2024-01-25T17:27:56;101042.08;;;0.83;84.06
85039;BME280;75366;54.588;18.456;2024-01-25T17:32:59;101046.41;;;0.78;84.51
85039;BME280;75366;54.588;18.456;2024-01-25T17:38:02;101047.90;;;0.75;84.89
85039;BME280;75366;54.588;18.456;2024-01-25T17:43:05;101061.38;;;0.72;84.83
85039;BME280;75366;54.588;18.456;2024-01-25T17:48:09;101068.10;;;0.67;84.91
85039;BME280;75366;54.588;18.456;2024-01-25T17:53:13;101066.35;;;0.69;84.81
85039;BME280;75366;54.588;18.456;2024-01-25T17:58:16;101075.98;;;0.69;84.72
85039;BME280;75366;54.588;18.456;2024-01-25T18:03:19;101083.67;;;0.69;85.00
85039;BME280;75366;54.588;18.456;2024-01-25T18:08:22;101087.23;;;0.66;85.21
85039;BME280;75366;54.588;18.456;2024-01-25T18:13:25;101093.58;;;0.62;85.24
85039;BME280;75366;54.588;18.456;2024-01-25T18:18:28;101102.20;;;0.65;85.10
85039;BME280;75366;54.588;18.456;2024-01-25T18:23:31;101104.13;;;0.67;85.21
85039;BME280;75366;54.588;18.456;2024-01-25T18:28:37;101106.34;;;0.71;84.97
85039;BME280;75366;54.588;18.456;2024-01-25T18:33:40;101115.44;;;0.73;84.76
85039;BME280;75366;54.588;18.456;2024-01-25T18:38:44;101125.63;;;0.73;84.78
85039;BME280;75366;54.588;18.456;2024-01-25T18:43:47;101133.78;;;0.72;84.86
85039;BME280;75366;54.588;18.456;2024-01-25T18:48:49;101136.73;;;0.74;84.62
85039;BME280;75366;54.588;18.456;2024-01-25T18:53:53;101140.89;;;0.75;84.84
85039;BME280;75366;54.588;18.456;2024-01-25T18:58:56;101145.36;;;0.74;84.71
85039;BME280;75366;54.588;18.456;2024-01-25T19:03:59;101149.16;;;0.75;84.48
85039;BME280;75366;54.588;18.456;2024-01-25T19:09:03;101160.95;;;0.76;84.16
85039;BME280;75366;54.588;18.456;2024-01-25T19:14:08;101170.54;;;0.79;84.55
85039;BME280;75366;54.588;18.456;2024-01-25T19:19:11;101169.34;;;0.82;84.26
85039;BME280;75366;54.588;18.456;2024-01-25T19:24:14;101175.30;;;0.84;84.25
85039;BME280;75366;54.588;18.456;2024-01-25T19:29:20;101169.98;;;0.87;83.94
85039;BME280;75366;54.588;18.456;2024-01-25T19:34:25;101173.42;;;0.92;82.92
85039;BME280;75366;54.588;18.456;2024-01-25T19:39:28;101173.91;;;1.00;81.41
85039;BME280;75366;54.588;18.456;2024-01-25T19:44:31;101176.71;;;1.12;80.59
85039;BME280;75366;54.588;18.456;2024-01-25T19:49:35;101179.03;;;1.15;80.26
85039;BME280;75366;54.588;18.456;2024-01-25T19:54:38;101185.15;;;1.17;80.42
85039;BME280;75366;54.588;18.456;2024-01-25T19:59:42;101185.00;;;1.15;80.27
85039;BME280;75366;54.588;18.456;2024-01-25T20:04:46;101181.19;;;1.09;80.79
85039;BME280;75366;54.588;18.456;2024-01-25T20:09:49;101190.23;;;1.14;80.89
85039;BME280;75366;54.588;18.456;2024-01-25T20:14:52;101186.59;;;1.11;81.38
85039;BME280;75366;54.588;18.456;2024-01-25T20:19:55;101187.52;;;1.13;81.31
85039;BME280;75366;54.588;18.456;2024-01-25T20:24:59;101193.94;;;1.15;81.21
85039;BME280;75366;54.588;18.456;2024-01-25T20:30:04;101200.08;;;1.21;81.18
85039;BME280;75366;54.588;18.456;2024-01-25T20:35:27;101199.27;;;1.23;80.94
85039;BME280;75366;54.588;18.456;2024-01-25T20:40:50;101200.94;;;1.24;80.69
85039;BME280;75366;54.588;18.456;2024-01-25T20:45:53;101202.58;;;1.30;80.51
85039;BME280;75366;54.588;18.456;2024-01-25T20:51:16;101203.14;;;1.30;80.48
85039;BME280;75366;54.588;18.456;2024-01-25T20:56:39;101205.96;;;1.33;80.24
85039;BME280;75366;54.588;18.456;2024-01-25T21:02:03;101208.61;;;1.31;80.22
85039;BME280;75366;54.588;18.456;2024-01-25T21:07:27;101211.35;;;1.30;80.24
85039;BME280;75366;54.588;18.456;2024-01-25T21:12:30;101212.13;;;1.28;80.26
85039;BME280;75366;54.588;18.456;2024-01-25T21:17:33;101217.07;;;1.28;80.37
85039;BME280;75366;54.588;18.456;2024-01-25T21:22:36;101221.41;;;1.27;80.26
85039;BME280;75366;54.588;18.456;2024-01-25T21:27:40;101229.35;;;1.26;80.39
85039;BME280;75366;54.588;18.456;2024-01-25T21:33:03;101234.10;;;1.26;80.33
85039;BME280;75366;54.588;18.456;2024-01-25T21:38:27;101232.09;;;1.25;79.88
85039;BME280;75366;54.588;18.456;2024-01-25T21:43:50;101240.14;;;1.26;79.90
85039;BME280;75366;54.588;18.456;2024-01-25T21:49:13;101238.89;;;1.25;79.80
85039;BME280;75366;54.588;18.456;2024-01-25T21:54:36;101243.82;;;1.26;79.73
85039;BME280;75366;54.588;18.456;2024-01-25T21:59:39;101244.03;;;1.22;79.95
85039;BME280;75366;54.588;18.456;2024-01-25T22:04:43;101249.21;;;1.23;80.22
85039;BME280;75366;54.588;18.456;2024-01-25T22:09:46;101250.72;;;1.22;79.94
85039;BME280;75366;54.588;18.456;2024-01-25T22:14:49;101255.34;;;1.22;80.01
85039;BME280;75366;54.588;18.456;2024-01-25T22:19:51;101252.83;;;1.21;79.79
85039;BME280;75366;54.588;18.456;2024-01-25T22:24:54;101259.96;;;1.20;79.94
85039;BME280;75366;54.588;18.456;2024-01-25T22:29:58;101264.77;;;1.19;79.98
85039;BME280;75366;54.588;18.456;2024-01-25T22:35:00;101268.42;;;1.15;79.86
85039;BME280;75366;54.588;18.456;2024-01-25T22:40:04;101271.89;;;1.14;79.99
85039;BME280;75366;54.588;18.456;2024-01-25T22:45:08;101280.00;;;1.14;80.17
85039;BME280;75366;54.588;18.456;2024-01-25T22:50:11;101283.64;;;1.11;80.02
85039;BME280;75366;54.588;18.456;2024-01-25T22:55:16;101296.90;;;1.12;80.09
85039;BME280;75366;54.588;18.456;2024-01-25T23:00:19;101296.18;;;1.09;79.65
85039;BME280;75366;54.588;18.456;2024-01-25T23:05:25;101300.63;;;1.07;79.56
85039;BME280;75366;54.588;18.456;2024-01-25T23:10:29;101308.73;;;1.08;79.74
85039;BME280;75366;54.588;18.456;2024-01-25T23:15:52;101314.03;;;1.05;79.34
85039;BME280;75366;54.588;18.456;2024-01-25T23:21:15;101317.35;;;1.03;79.06
85039;BME280;75366;54.588;18.456;2024-01-25T23:26:18;101317.38;;;1.00;79.21
85039;BME280;75366;54.588;18.456;2024-01-25T23:31:21;101319.45;;;0.99;79.24
85039;BME280;75366;54.588;18.456;2024-01-25T23:36:23;101316.40;;;0.97;78.93
85039;BME280;75366;54.588;18.456;2024-01-25T23:41:26;101319.97;;;0.95;78.88
85039;BME280;75366;54.588;18.456;2024-01-25T23:46:30;101329.16;;;0.95;78.87
85039;BME280;75366;54.588;18.456;2024-01-25T23:51:32;101334.33;;;0.92;78.56
85039;BME280;75366;54.588;18.456;2024-01-25T23:56:37;101339.59;;;0.91;78.74
